Observation data for Levelland on 10/22/2019      Previous  Date  Next       Current Mesonet Observations  Soil Data  Daily Summary Page  Observations in Plain Language
KLD1 220500Z 01003KT 04/M10 A3015 RMK A01 T00391102  RH  035%=      5-min Rain = 0
KLD1 220505Z 01003KT 03/M10 A3015 RMK A01 T00341103  RH  036%=      5-min Rain = 0
KLD1 220510Z 03002KT 05/M10 A3015 RMK A01 T00461100  RH  034%=      5-min Rain = 0
KLD1 220515Z 07002KT 05/M10 A3015 RMK A01 T00501100  RH  033%=      5-min Rain = 0
KLD1 220520Z 09002KT 06/M10 A3015 RMK A01 T00561098  RH  032%=      5-min Rain = 0
KLD1 220525Z 11001KT 07/M10 A3015 RMK A01 T00661098  RH  030%=      5-min Rain = 0
KLD1 220530Z 00000KT 07/M10 A3015 RMK A01 T00681097  RH  030%=      5-min Rain = 0
KLD1 220535Z 11000KT 07/M09 A3015 RMK A01 T00671094  RH  031%=      5-min Rain = 0
KLD1 220540Z 11000KT 07/M09 A3015 RMK A01 T00651094  RH  031%=      5-min Rain = 0
KLD1 220545Z 11001KT 06/M09 A3015 RMK A01 T00551089  RH  035%=      5-min Rain = 0
KLD1 220550Z 11000KT 05/M09 A3015 RMK A01 T00491087  RH  037%=      5-min Rain = 0
KLD1 220555Z 07000KT 04/M09 A3015 RMK A01 T00431090  RH  037%=      5-min Rain = 0
KLD1 220600Z 05000KT 04/M09 A3015 RMK A01 T00371090  RH  039%=      5-min Rain = 0
KLD1 220605Z 06001KT 04/M09 A3015 RMK A01 T00351091  RH  039%=      5-min Rain = 0
KLD1 220610Z 07001KT 03/M09 A3015 RMK A01 T00331091  RH  040%=      5-min Rain = 0
KLD1 220615Z 12001KT 03/M09 A3015 RMK A01 T00331092  RH  040%=      5-min Rain = 0
KLD1 220620Z 14002KT 04/M09 A3015 RMK A01 T00381091  RH  038%=      5-min Rain = 0
KLD1 220625Z 14003KT 04/M09 A3015 RMK A01 T00411090  RH  038%=      5-min Rain = 0
KLD1 220630Z 14003KT 04/M08 A3015 RMK A01 T00371084  RH  041%=      5-min Rain = 0
KLD1 220635Z 11002KT 04/M08 A3015 RMK A01 T00361083  RH  041%=      5-min Rain = 0
KLD1 220640Z 11001KT 04/M09 A3016 RMK A01 T00371085  RH  041%=      5-min Rain = 0
KLD1 220645Z 15002KT 04/M09 A3016 RMK A01 T00411085  RH  039%=      5-min Rain = 0
KLD1 220650Z 15002KT 04/M09 A3016 RMK A01 T00351090  RH  039%=      5-min Rain = 0
KLD1 220655Z 15002KT 05/M09 A3017 RMK A01 T00451090  RH  037%=      5-min Rain = 0
KLD1 220700Z 10001KT 05/M09 A3016 RMK A01 T00481089  RH  036%=      5-min Rain = 0
KLD1 220705Z 08001KT 05/M09 A3017 RMK A01 T00531093  RH  034%=      5-min Rain = 0
KLD1 220710Z 09001KT 04/M09 A3017 RMK A01 T00361094  RH  038%=      5-min Rain = 0
KLD1 220715Z 04002G7KT 03/M09 A3017 RMK A01 T00331093  RH  039%=      5-min Rain = 0
KLD1 220720Z 03006KT 03/M10 A3017 RMK A01 T00281097  RH  039%=      5-min Rain = 0
KLD1 220725Z 02005KT 03/M10 A3017 RMK A01 T00251097  RH  040%=      5-min Rain = 0
KLD1 220730Z 01002KT 03/M09 A3017 RMK A01 T00311094  RH  039%=      5-min Rain = 0
KLD1 220735Z 03002KT 03/M10 A3017 RMK A01 T00311095  RH  039%=      5-min Rain = 0
KLD1 220740Z 04001KT 03/M09 A3017 RMK A01 T00291092  RH  040%=      5-min Rain = 0
KLD1 220745Z 04001KT 03/M09 A3018 RMK A01 T00291091  RH  041%=      5-min Rain = 0
KLD1 220750Z 03001KT 03/M09 A3018 RMK A01 T00331090  RH  040%=      5-min Rain = 0
KLD1 220755Z 03003KT 04/M09 A3017 RMK A01 T00361089  RH  039%=      5-min Rain = 0
KLD1 220800Z 03001KT 03/M09 A3018 RMK A01 T00341088  RH  040%=      5-min Rain = 0
KLD1 220805Z 00000KT 04/M09 A3018 RMK A01 T00431086  RH  038%=      5-min Rain = 0
KLD1 220810Z 00000KT 05/M09 A3018 RMK A01 T00461087  RH  037%=      5-min Rain = 0
KLD1 220815Z 00000KT 05/M09 A3018 RMK A01 T00471086  RH  037%=      5-min Rain = 0
KLD1 220820Z 03001KT 04/M09 A3018 RMK A01 T00371087  RH  040%=      5-min Rain = 0
KLD1 220825Z 02001KT 02/M09 A3018 RMK A01 T00211090  RH  043%=      5-min Rain = 0
KLD1 220830Z 00000KT 01/M09 A3018 RMK A01 T00081089  RH  048%=      5-min Rain = 0
KLD1 220835Z 00000KT 01/M08 A3018 RMK A01 T00071084  RH  051%=      5-min Rain = 0
KLD1 220840Z 01001KT 01/M08 A3018 RMK A01 T00131077  RH  051%=      5-min Rain = 0
KLD1 220845Z 02004KT 02/M08 A3018 RMK A01 T00151083  RH  048%=      5-min Rain = 0
KLD1 220850Z 03005KT 01/M09 A3018 RMK A01 T00091087  RH  049%=      5-min Rain = 0
KLD1 220855Z 02003KT 01/M09 A3018 RMK A01 T00121086  RH  048%=      5-min Rain = 0
KLD1 220900Z 02003KT 02/M08 A3018 RMK A01 T00191083  RH  047%=      5-min Rain = 0
KLD1 220905Z 02004KT 02/M08 A3018 RMK A01 T00201082  RH  047%=      5-min Rain = 0
KLD1 220910Z 03004KT 02/M08 A3018 RMK A01 T00221081  RH  046%=      5-min Rain = 0
KLD1 220915Z 04004KT 02/M08 A3018 RMK A01 T00221082  RH  046%=      5-min Rain = 0
KLD1 220920Z 03003KT 02/M08 A3018 RMK A01 T00231081  RH  046%=      5-min Rain = 0
KLD1 220925Z 02002KT 03/M08 A3018 RMK A01 T00271081  RH  045%=      5-min Rain = 0
KLD1 220930Z 01001KT 03/M08 A3018 RMK A01 T00271080  RH  045%=      5-min Rain = 0
KLD1 220935Z 02002KT 03/M08 A3018 RMK A01 T00281079  RH  045%=      5-min Rain = 0
KLD1 220940Z 00003KT 03/M08 A3018 RMK A01 T00251081  RH  045%=      5-min Rain = 0
KLD1 220945Z 01002KT 02/M08 A3019 RMK A01 T00211081  RH  047%=      5-min Rain = 0
KLD1 220950Z 02003KT 02/M08 A3019 RMK A01 T00221078  RH  048%=      5-min Rain = 0
KLD1 220955Z 02003KT 02/M08 A3019 RMK A01 T00231077  RH  047%=      5-min Rain = 0
KLD1 221000Z 02004KT 03/M08 A3018 RMK A01 T00251078  RH  046%=      5-min Rain = 0
KLD1 221005Z 03003KT 02/M08 A3019 RMK A01 T00221080  RH  047%=      5-min Rain = 0
KLD1 221010Z 03003KT 02/M08 A3019 RMK A01 T00221078  RH  048%=      5-min Rain = 0
KLD1 221015Z 03003KT 02/M08 A3019 RMK A01 T00231078  RH  047%=      5-min Rain = 0
KLD1 221020Z 04004KT 02/M08 A3019 RMK A01 T00241077  RH  047%=      5-min Rain = 0
KLD1 221025Z 03004KT 03/M08 A3019 RMK A01 T00261078  RH  046%=      5-min Rain = 0
KLD1 221030Z 04004KT 03/M08 A3019 RMK A01 T00271079  RH  046%=      5-min Rain = 0
KLD1 221035Z 03004KT 03/M08 A3019 RMK A01 T00271079  RH  046%=      5-min Rain = 0
KLD1 221040Z 04004KT 03/M08 A302 RMK A01 T00251080  RH  046%=      5-min Rain = 0
KLD1 221045Z 03006KT 02/M08 A302 RMK A01 T00231081  RH  046%=      5-min Rain = 0
KLD1 221050Z 03005KT 02/M08 A302 RMK A01 T00181081  RH  048%=      5-min Rain = 0
KLD1 221055Z 04004KT 02/M08 A302 RMK A01 T00201077  RH  049%=      5-min Rain = 0
KLD1 221100Z 04004KT 02/M08 A3021 RMK A01 T00221075  RH  048%=      5-min Rain = 0
KLD1 221105Z 04005KT 02/M08 A3021 RMK A01 T00241075  RH  048%=      5-min Rain = 0
KLD1 221110Z 04004KT 02/M08 A3021 RMK A01 T00231075  RH  049%=      5-min Rain = 0
KLD1 221115Z 04004KT 02/M07 A3021 RMK A01 T00231074  RH  049%=      5-min Rain = 0
KLD1 221120Z 03005KT 02/M08 A3021 RMK A01 T00201075  RH  049%=      5-min Rain = 0
KLD1 221125Z 03005KT 02/M08 A3021 RMK A01 T00181075  RH  050%=      5-min Rain = 0
KLD1 221130Z 04005KT 02/M07 A3021 RMK A01 T00191074  RH  050%=      5-min Rain = 0
KLD1 221135Z 04005KT 02/M07 A3021 RMK A01 T00211073  RH  050%=      5-min Rain = 0
KLD1 221140Z 04005KT 02/M07 A3021 RMK A01 T00211073  RH  050%=      5-min Rain = 0
KLD1 221145Z 03004KT 02/M07 A3021 RMK A01 T00201073  RH  050%=      5-min Rain = 0
KLD1 221150Z 04004KT 02/M07 A3022 RMK A01 T00191072  RH  051%=      5-min Rain = 0
KLD1 221155Z 04003KT 02/M07 A3022 RMK A01 T00201070  RH  051%=      5-min Rain = 0
KLD1 221200Z 02004KT 02/M07 A3022 RMK A01 T00211070  RH  051%=      5-min Rain = 0
KLD1 221205Z 03005KT 02/M07 A3022 RMK A01 T00201068  RH  052%=      5-min Rain = 0
KLD1 221210Z 03004KT 02/M07 A3022 RMK A01 T00161068  RH  053%=      5-min Rain = 0
KLD1 221215Z 04003KT 02/M07 A3022 RMK A01 T00161067  RH  054%=      5-min Rain = 0
KLD1 221220Z 04004KT 02/M07 A3022 RMK A01 T00181067  RH  053%=      5-min Rain = 0
KLD1 221225Z 04004KT 02/M07 A3022 RMK A01 T00191067  RH  053%=      5-min Rain = 0
KLD1 221230Z 03004KT 02/M07 A3022 RMK A01 T00191067  RH  053%=      5-min Rain = 0
KLD1 221235Z 03004KT 02/M07 A3022 RMK A01 T00161068  RH  054%=      5-min Rain = 0
KLD1 221240Z 02003KT 01/M07 A3022 RMK A01 T00141067  RH  055%=      5-min Rain = 0
KLD1 221245Z 03002KT 01/M07 A3022 RMK A01 T00131067  RH  055%=      5-min Rain = 0
KLD1 221250Z 03003KT 01/M07 A3022 RMK A01 T00121066  RH  056%=      5-min Rain = 0
KLD1 221255Z 04003KT 01/M07 A3022 RMK A01 T00131066  RH  056%=      5-min Rain = 0
KLD1 221300Z 04003KT 01/M07 A3022 RMK A01 T00141066  RH  056%=      5-min Rain = 0
KLD1 221305Z 04003KT 01/M07 A3022 RMK A01 T00141065  RH  056%=      5-min Rain = 0
KLD1 221310Z 04003KT 02/M07 A3022 RMK A01 T00151065  RH  055%=      5-min Rain = 0
KLD1 221315Z 04003KT 02/M07 A3022 RMK A01 T00161065  RH  055%=      5-min Rain = 0
KLD1 221320Z 05003KT 02/M07 A3023 RMK A01 T00171065  RH  055%=      5-min Rain = 0
KLD1 221325Z 05004KT 02/M06 A3023 RMK A01 T00201063  RH  054%=      5-min Rain = 0
KLD1 221330Z 05003KT 02/M06 A3023 RMK A01 T00241060  RH  054%=      5-min Rain = 0
KLD1 221335Z 05003KT 03/M06 A3023 RMK A01 T00301057  RH  053%=      5-min Rain = 0
KLD1 221340Z 05004KT 04/M06 A3023 RMK A01 T00351055  RH  052%=      5-min Rain = 0
KLD1 221345Z 06003KT 04/M05 A3024 RMK A01 T00411053  RH  051%=      5-min Rain = 0
KLD1 221350Z 05003KT 05/M05 A3024 RMK A01 T00451051  RH  050%=      5-min Rain = 0
KLD1 221355Z 06004KT 05/M05 A3024 RMK A01 T00511049  RH  049%=      5-min Rain = 0
KLD1 221400Z 07004KT 06/M05 A3024 RMK A01 T00591048  RH  046%=      5-min Rain = 0
KLD1 221405Z 06005KT 06/M05 A3024 RMK A01 T00621049  RH  045%=      5-min Rain = 0
KLD1 221410Z 07004KT 07/M05 A3025 RMK A01 T00651047  RH  045%=      5-min Rain = 0
KLD1 221415Z 08005KT 07/M05 A3025 RMK A01 T00721046  RH  043%=      5-min Rain = 0
KLD1 221420Z 08005KT 08/M05 A3025 RMK A01 T00781046  RH  041%=      5-min Rain = 0
KLD1 221425Z 09005KT 08/M05 A3025 RMK A01 T00831045  RH  040%=      5-min Rain = 0
KLD1 221430Z 09006KT 09/M05 A3025 RMK A01 T00891046  RH  038%=      5-min Rain = 0
KLD1 221435Z 10006KT 09/M05 A3026 RMK A01 T00921047  RH  037%=      5-min Rain = 0
KLD1 221440Z 10005KT 10/M05 A3026 RMK A01 T00951046  RH  037%=      5-min Rain = 0
KLD1 221445Z 10005KT 10/M05 A3026 RMK A01 T00971045  RH  036%=      5-min Rain = 0
KLD1 221450Z 10005KT 10/M05 A3026 RMK A01 T01021045  RH  035%=      5-min Rain = 0
KLD1 221455Z 10005KT 11/M05 A3026 RMK A01 T01071045  RH  034%=      5-min Rain = 0
KLD1 221500Z 10006KT 11/M05 A3026 RMK A01 T01131047  RH  033%=      5-min Rain = 0
KLD1 221505Z 10008KT 12/M05 A3026 RMK A01 T01171049  RH  031%=      5-min Rain = 0
KLD1 221510Z 11008KT 12/M05 A3026 RMK A01 T01201049  RH  030%=      5-min Rain = 0
KLD1 221515Z 11007KT 12/M05 A3026 RMK A01 T01231046  RH  030%=      5-min Rain = 0
KLD1 221520Z 13008KT 13/M04 A3026 RMK A01 T01291044  RH  030%=      5-min Rain = 0
KLD1 221525Z 13009KT 13/M04 A3026 RMK A01 T01321043  RH  029%=      5-min Rain = 0
KLD1 221530Z 14010KT 13/M04 A3026 RMK A01 T01331043  RH  029%=      5-min Rain = 0
KLD1 221535Z 13010KT 14/M04 A3026 RMK A01 T01361042  RH  029%=      5-min Rain = 0
KLD1 221540Z 13010KT 14/M04 A3026 RMK A01 T01371041  RH  029%=      5-min Rain = 0
KLD1 221545Z 13009KT 14/M04 A3026 RMK A01 T01391041  RH  028%=      5-min Rain = 0
KLD1 221550Z 13009KT 14/M04 A3026 RMK A01 T01401041  RH  028%=      5-min Rain = 0
KLD1 221555Z 14009KT 14/M04 A3025 RMK A01 T01441040  RH  028%=      5-min Rain = 0
KLD1 221600Z 14009KT 15/M04 A3025 RMK A01 T01461040  RH  027%=      5-min Rain = 0
KLD1 221605Z 13008KT 15/M04 A3025 RMK A01 T01471039  RH  028%=      5-min Rain = 0
KLD1 221610Z 13007KT 15/M04 A3025 RMK A01 T01481040  RH  027%=      5-min Rain = 0
KLD1 221615Z 14007KT 15/M04 A3025 RMK A01 T01501039  RH  027%=      5-min Rain = 0
KLD1 221620Z 14008KT 15/M04 A3025 RMK A01 T01501038  RH  027%=      5-min Rain = 0
KLD1 221625Z 15008KT 15/M04 A3025 RMK A01 T01541038  RH  027%=      5-min Rain = 0
KLD1 221630Z 16008KT 15/M04 A3025 RMK A01 T01541040  RH  026%=      5-min Rain = 0
KLD1 221635Z 16008KT 16/M04 A3024 RMK A01 T01561040  RH  026%=      5-min Rain = 0
KLD1 221640Z 17007KT 16/M04 A3024 RMK A01 T01571041  RH  025%=      5-min Rain = 0
KLD1 221645Z 16006KT 16/M04 A3024 RMK A01 T01571041  RH  025%=      5-min Rain = 0
KLD1 221650Z 15005G10KT 16/M04 A3024 RMK A01 T01611042  RH  025%=      5-min Rain = 0
KLD1 221655Z 17006KT 16/M04 A3024 RMK A01 T01631039  RH  025%=      5-min Rain = 0
KLD1 221700Z 13006KT 16/M04 A3024 RMK A01 T01631038  RH  025%=      5-min Rain = 0
KLD1 221705Z 16007KT 17/M04 A3024 RMK A01 T01651039  RH  024%=      5-min Rain = 0
KLD1 221710Z 18006KT 17/M04 A3024 RMK A01 T01671044  RH  023%=      5-min Rain = 0
KLD1 221715Z 16004G10KT 17/M04 A3023 RMK A01 T01701044  RH  023%=      5-min Rain = 0
KLD1 221720Z 16006KT 17/M04 A3024 RMK A01 T01721044  RH  022%=      5-min Rain = 0
KLD1 221725Z 16003KT 17/M05 A3024 RMK A01 T01701048  RH  022%=      5-min Rain = 0
KLD1 221730Z 12004KT 17/M04 A3024 RMK A01 T01731041  RH  023%=      5-min Rain = 0
KLD1 221735Z 11003G11KT 17/M04 A3023 RMK A01 T01731040  RH  023%=      5-min Rain = 0
KLD1 221740Z 15006KT 18/M04 A3023 RMK A01 T01801043  RH  022%=      5-min Rain = 0
KLD1 221745Z 15002G7KT 18/M04 A3023 RMK A01 T01801043  RH  022%=      5-min Rain = 0
KLD1 221750Z 13006KT 18/M04 A3023 RMK A01 T01821042  RH  022%=      5-min Rain = 0
KLD1 221755Z 14004KT 18/M04 A3023 RMK A01 T01821043  RH  021%=      5-min Rain = 0
KLD1 221800Z 12005KT 18/M05 A3023 RMK A01 T01841045  RH  021%=      5-min Rain = 0
KLD1 221805Z 16003KT 18/M05 A3023 RMK A01 T01841052  RH  020%=      5-min Rain = 0
KLD1 221810Z 16003KT 19/M05 A3022 RMK A01 T01861051  RH  020%=      5-min Rain = 0
KLD1 221815Z 16005KT 19/M05 A3022 RMK A01 T01861045  RH  021%=      5-min Rain = 0
KLD1 221820Z 19007KT 19/M05 A3022 RMK A01 T01881051  RH  019%=      5-min Rain = 0
KLD1 221825Z 18006KT 19/M05 A3021 RMK A01 T01861054  RH  019%=      5-min Rain = 0
KLD1 221830Z 16004KT 19/M05 A3021 RMK A01 T01911052  RH  019%=      5-min Rain = 0
KLD1 221835Z 16005G10KT 19/M05 A3021 RMK A01 T01921050  RH  019%=      5-min Rain = 0
KLD1 221840Z 20005KT 19/M05 A302 RMK A01 T01931047  RH  019%=      5-min Rain = 0
KLD1 221845Z 17006KT 20/M05 A302 RMK A01 T01961046  RH  019%=      5-min Rain = 0
KLD1 221850Z 20005KT 20/M05 A302 RMK A01 T01951049  RH  019%=      5-min Rain = 0
KLD1 221855Z 20007KT 20/M05 A302 RMK A01 T01981050  RH  018%=      5-min Rain = 0
KLD1 221900Z 21008KT 20/M05 A3019 RMK A01 T01971052  RH  018%=      5-min Rain = 0
KLD1 221905Z 23006KT 19/M06 A3019 RMK A01 T01941056  RH  018%=      5-min Rain = 0
KLD1 221910Z 24006KT 20/M06 A3019 RMK A01 T01971064  RH  017%=      5-min Rain = 0
KLD1 221915Z 20006KT 20/M06 A3018 RMK A01 T02011059  RH  017%=      5-min Rain = 0
KLD1 221920Z 19002G7KT 20/M06 A3018 RMK A01 T02001060  RH  017%=      5-min Rain = 0
KLD1 221925Z 19004KT 20/M06 A3018 RMK A01 T02021058  RH  017%=      5-min Rain = 0
KLD1 221930Z 22005KT 20/M06 A3018 RMK A01 T02021056  RH  017%=      5-min Rain = 0
KLD1 221935Z 22005KT 20/M06 A3017 RMK A01 T02011057  RH  017%=      5-min Rain = 0
KLD1 221940Z 26004KT 20/M06 A3017 RMK A01 T02031056  RH  017%=      5-min Rain = 0
KLD1 221945Z 20005KT 21/M06 A3017 RMK A01 T02061057  RH  017%=      5-min Rain = 0
KLD1 221950Z 18005KT 21/M06 A3017 RMK A01 T02051062  RH  016%=      5-min Rain = 0
KLD1 221955Z 19004KT 20/M06 A3016 RMK A01 T02041062  RH  016%=      5-min Rain = 0
KLD1 222000Z 16003KT 21/M06 A3016 RMK A01 T02061060  RH  016%=      5-min Rain = 0
KLD1 222005Z 18008KT 21/M06 A3015 RMK A01 T02091064  RH  015%=      5-min Rain = 0
KLD1 222010Z 20007KT 21/M07 A3015 RMK A01 T02081068  RH  015%=      5-min Rain = 0
KLD1 222015Z 19006KT 21/M07 A3015 RMK A01 T02101068  RH  015%=      5-min Rain = 0
KLD1 222020Z 18004KT 21/M07 A3015 RMK A01 T02081071  RH  015%=      5-min Rain = 0
KLD1 222025Z 19006KT 21/M07 A3015 RMK A01 T02111067  RH  015%=      5-min Rain = 0
KLD1 222030Z 09001KT 21/M07 A3015 RMK A01 T02091067  RH  015%=      5-min Rain = 0
KLD1 222035Z 13003KT 21/M07 A3014 RMK A01 T02101067  RH  015%=      5-min Rain = 0
KLD1 222040Z 21004KT 22/M07 A3014 RMK A01 T02151070  RH  014%=      5-min Rain = 0
KLD1 222045Z 16006G12KT 22/M07 A3014 RMK A01 T02151072  RH  014%=      5-min Rain = 0
KLD1 222050Z 18004KT 21/M07 A3014 RMK A01 T02121071  RH  014%=      5-min Rain = 0
KLD1 222055Z 21003KT 22/M07 A3014 RMK A01 T02151069  RH  014%=      5-min Rain = 0
KLD1 222100Z 20006KT 22/M07 A3014 RMK A01 T02151073  RH  014%=      5-min Rain = 0
KLD1 222105Z 29001KT 22/M08 A3014 RMK A01 T02151076  RH  014%=      5-min Rain = 0
KLD1 222110Z 10003KT 21/M08 A3013 RMK A01 T02141077  RH  013%=      5-min Rain = 0
KLD1 222115Z 20007KT 22/M08 A3013 RMK A01 T02201078  RH  013%=      5-min Rain = 0
KLD1 222120Z 23006KT 22/M08 A3013 RMK A01 T02181081  RH  013%=      5-min Rain = 0
KLD1 222125Z 20008KT 22/M08 A3013 RMK A01 T02211083  RH  012%=      5-min Rain = 0
KLD1 222130Z 18004KT 22/M09 A3012 RMK A01 T02171085  RH  012%=      5-min Rain = 0
KLD1 222135Z 18008KT 22/M08 A3012 RMK A01 T02181083  RH  013%=      5-min Rain = 0
KLD1 222140Z 18006KT 22/M08 A3012 RMK A01 T02171084  RH  013%=      5-min Rain = 0
KLD1 222145Z 17004KT 22/M09 A3012 RMK A01 T02171085  RH  012%=      5-min Rain = 0
KLD1 222150Z 21008KT 22/M08 A3011 RMK A01 T02201082  RH  012%=      5-min Rain = 0
KLD1 222155Z 22005KT 22/M08 A3011 RMK A01 T02201084  RH  012%=      5-min Rain = 0
KLD1 222200Z 22006G12KT 22/M08 A3011 RMK A01 T02181084  RH  012%=      5-min Rain = 0
KLD1 222205Z 20005KT 22/M08 A3011 RMK A01 T02201083  RH  012%=      5-min Rain = 0
KLD1 222210Z 18004KT 22/M08 A3011 RMK A01 T02191083  RH  012%=      5-min Rain = 0
KLD1 222215Z 20006KT 22/M08 A3011 RMK A01 T02201083  RH  012%=      5-min Rain = 0
KLD1 222220Z 19008KT 22/M08 A301 RMK A01 T02191084  RH  012%=      5-min Rain = 0
KLD1 222225Z 22006KT 22/M08 A301 RMK A01 T02211083  RH  012%=      5-min Rain = 0
KLD1 222230Z 22005KT 22/M08 A301 RMK A01 T02191083  RH  012%=      5-min Rain = 0
KLD1 222235Z 18003KT 22/M08 A301 RMK A01 T02191084  RH  012%=      5-min Rain = 0
KLD1 222240Z 24005G10KT 22/M08 A301 RMK A01 T02201084  RH  012%=      5-min Rain = 0
KLD1 222245Z 23007KT 22/M08 A301 RMK A01 T02191083  RH  012%=      5-min Rain = 0
KLD1 222250Z 20006KT 22/M08 A301 RMK A01 T02181084  RH  012%=      5-min Rain = 0
KLD1 222255Z 20009KT 22/M09 A3009 RMK A01 T02161086  RH  012%=      5-min Rain = 0
KLD1 222300Z 20008KT 22/M09 A3009 RMK A01 T02151087  RH  012%=      5-min Rain = 0
KLD1 222305Z 20005KT 21/M09 A3009 RMK A01 T02141087  RH  012%=      5-min Rain = 0
KLD1 222310Z 19007KT 22/M08 A3009 RMK A01 T02151084  RH  013%=      5-min Rain = 0
KLD1 222315Z 21008KT 21/M09 A3009 RMK A01 T02131086  RH  013%=      5-min Rain = 0
KLD1 222320Z 20008KT 21/M09 A3009 RMK A01 T02121085  RH  013%=      5-min Rain = 0
KLD1 222325Z 20008KT 21/M09 A3009 RMK A01 T02101087  RH  013%=      5-min Rain = 0
KLD1 222330Z 19008G13KT 21/M09 A3009 RMK A01 T02081086  RH  013%=      5-min Rain = 0
KLD1 222335Z 21009KT 21/M09 A3008 RMK A01 T02071086  RH  013%=      5-min Rain = 0
KLD1 222340Z 20006KT 20/M09 A3008 RMK A01 T02041085  RH  013%=      5-min Rain = 0
KLD1 222345Z 19006KT 20/M08 A3008 RMK A01 T02001083  RH  014%=      5-min Rain = 0
KLD1 222350Z 19006KT 20/M08 A3008 RMK A01 T01951080  RH  015%=      5-min Rain = 0
KLD1 222355Z 19006KT 19/M08 A3008 RMK A01 T01901080  RH  015%=      5-min Rain = 0
KLD1 230000Z 18006KT 18/M08 A3008 RMK A01 T01841079  RH  016%=      5-min Rain = 0
KLD1 230005Z 18006KT 18/M08 A3008 RMK A01 T01781079  RH  017%=      5-min Rain = 0
KLD1 230010Z 19006KT 17/M08 A3008 RMK A01 T01721079  RH  017%=      5-min Rain = 0
KLD1 230015Z 19005KT 17/M08 A3008 RMK A01 T01661077  RH  018%=      5-min Rain = 0
KLD1 230020Z 18006KT 16/M08 A3008 RMK A01 T01601076  RH  019%=      5-min Rain = 0
KLD1 230025Z 18007KT 15/M08 A3008 RMK A01 T01531076  RH  020%=      5-min Rain = 0
KLD1 230030Z 19006KT 15/M08 A3008 RMK A01 T01491076  RH  020%=      5-min Rain = 0
KLD1 230035Z 19006KT 15/M08 A3008 RMK A01 T01461076  RH  021%=      5-min Rain = 0
KLD1 230040Z 19007KT 14/M08 A3008 RMK A01 T01431075  RH  021%=      5-min Rain = 0
KLD1 230045Z 18007KT 14/M07 A3008 RMK A01 T01381073  RH  022%=      5-min Rain = 0
KLD1 230050Z 18006KT 14/M07 A3008 RMK A01 T01371072  RH  023%=      5-min Rain = 0
KLD1 230055Z 18006KT 13/M07 A3008 RMK A01 T01341071  RH  023%=      5-min Rain = 0
KLD1 230100Z 18006KT 13/M07 A3008 RMK A01 T01291071  RH  024%=      5-min Rain = 0
KLD1 230105Z 19006KT 13/M07 A3008 RMK A01 T01281069  RH  025%=      5-min Rain = 0
KLD1 230110Z 19007KT 13/M07 A3008 RMK A01 T01271069  RH  025%=      5-min Rain = 0
KLD1 230115Z 18007KT 12/M07 A3008 RMK A01 T01241068  RH  026%=      5-min Rain = 0
KLD1 230120Z 18007KT 12/M07 A3008 RMK A01 T01221067  RH  026%=      5-min Rain = 0
KLD1 230125Z 19007KT 12/M07 A3008 RMK A01 T01221066  RH  026%=      5-min Rain = 0
KLD1 230130Z 19008KT 12/M07 A3008 RMK A01 T01211065  RH  027%=      5-min Rain = 0
KLD1 230135Z 19008KT 13/M06 A3008 RMK A01 T01251064  RH  026%=      5-min Rain = 0
KLD1 230140Z 19007KT 12/M06 A3008 RMK A01 T01231064  RH  027%=      5-min Rain = 0
KLD1 230145Z 19008KT 12/M06 A3008 RMK A01 T01181063  RH  028%=      5-min Rain = 0
KLD1 230150Z 19008KT 12/M06 A3008 RMK A01 T01171062  RH  028%=      5-min Rain = 0
KLD1 230155Z 19009KT 12/M06 A3008 RMK A01 T01181062  RH  028%=      5-min Rain = 0
KLD1 230200Z 19008KT 12/M06 A3008 RMK A01 T01191061  RH  028%=      5-min Rain = 0
KLD1 230205Z 19008KT 12/M06 A3008 RMK A01 T01171060  RH  029%=      5-min Rain = 0
KLD1 230210Z 19008KT 12/M06 A3008 RMK A01 T01171059  RH  029%=      5-min Rain = 0
KLD1 230215Z 19008KT 12/M06 A3008 RMK A01 T01161059  RH  029%=      5-min Rain = 0
KLD1 230220Z 18007KT 11/M06 A3008 RMK A01 T01111059  RH  030%=      5-min Rain = 0
KLD1 230225Z 19007KT 11/M06 A3007 RMK A01 T01101058  RH  030%=      5-min Rain = 0
KLD1 230230Z 19008KT 11/M06 A3007 RMK A01 T01071057  RH  031%=      5-min Rain = 0
KLD1 230235Z 20007KT 11/M06 A3007 RMK A01 T01051057  RH  032%=      5-min Rain = 0
KLD1 230240Z 19008KT 11/M06 A3007 RMK A01 T01071056  RH  031%=      5-min Rain = 0
KLD1 230245Z 18008KT 11/M06 A3007 RMK A01 T01091057  RH  031%=      5-min Rain = 0
KLD1 230250Z 18007KT 11/M06 A3007 RMK A01 T01071057  RH  031%=      5-min Rain = 0
KLD1 230255Z 19007KT 10/M06 A3007 RMK A01 T01041057  RH  032%=      5-min Rain = 0
KLD1 230300Z 19009KT 10/M06 A3007 RMK A01 T00991056  RH  033%=      5-min Rain = 0
KLD1 230305Z 19008KT 10/M06 A3007 RMK A01 T01001056  RH  033%=      5-min Rain = 0
KLD1 230310Z 19007KT 10/M06 A3007 RMK A01 T01011056  RH  033%=      5-min Rain = 0
KLD1 230315Z 20007KT 10/M06 A3007 RMK A01 T00971055  RH  034%=      5-min Rain = 0
KLD1 230320Z 20008KT 10/M05 A3007 RMK A01 T00951054  RH  035%=      5-min Rain = 0
KLD1 230325Z 21008KT 10/M05 A3007 RMK A01 T00961053  RH  035%=      5-min Rain = 0
KLD1 230330Z 21007KT 10/M05 A3007 RMK A01 T00991053  RH  034%=      5-min Rain = 0
KLD1 230335Z 21008KT 10/M05 A3007 RMK A01 T01021053  RH  033%=      5-min Rain = 0
KLD1 230340Z 21007KT 11/M05 A3006 RMK A01 T01061052  RH  032%=      5-min Rain = 0
KLD1 230345Z 21007KT 11/M05 A3006 RMK A01 T01061052  RH  033%=      5-min Rain = 0
KLD1 230350Z 21007KT 10/M05 A3006 RMK A01 T01041052  RH  033%=      5-min Rain = 0
KLD1 230355Z 21007KT 10/M05 A3006 RMK A01 T01031052  RH  033%=      5-min Rain = 0
KLD1 230400Z 21008KT 10/M05 A3006 RMK A01 T01021052  RH  033%=      5-min Rain = 0
KLD1 230405Z 21007KT 10/M05 A3006 RMK A01 T01031052  RH  033%=      5-min Rain = 0
KLD1 230410Z 20008KT 10/M05 A3006 RMK A01 T01001052  RH  034%=      5-min Rain = 0
KLD1 230415Z 20008KT 10/M05 A3006 RMK A01 T01031052  RH  033%=      5-min Rain = 0
KLD1 230420Z 20007KT 11/M05 A3006 RMK A01 T01071053  RH  032%=      5-min Rain = 0
KLD1 230425Z 21007KT 10/M05 A3006 RMK A01 T01041053  RH  033%=      5-min Rain = 0
KLD1 230430Z 21007KT 11/M05 A3006 RMK A01 T01051053  RH  032%=      5-min Rain = 0
KLD1 230435Z 21007KT 11/M05 A3005 RMK A01 T01081053  RH  032%=      5-min Rain = 0
KLD1 230440Z 21007KT 11/M05 A3005 RMK A01 T01091054  RH  032%=      5-min Rain = 0
KLD1 230445Z 21008KT 11/M05 A3005 RMK A01 T01101054  RH  031%=      5-min Rain = 0
KLD1 230450Z 22008KT 11/M05 A3005 RMK A01 T01101054  RH  031%=      5-min Rain = 0
KLD1 230455Z 22008KT 11/M05 A3005 RMK A01 T01091054  RH  032%=      5-min Rain = 0

Page generated in 0.0086 seconds.